Terminal Aerodrome Forecast
Issued by NWS

Home | Current Version | Previous Version | Text Only | Print | Product List | Glossary On
Versions: 1 2 3 4 5 6 7 8 9 10 11 12 13 14
000
FTUS46 KMFR 131100
TAFLMT
TAF
KLMT 131139Z 1312/1412 VRB03KT P6SM SCT120
     FM132300 31014G21KT P6SM BKN060 OVC100
     FM140500 30005KT P6SM SCT060=

USA.gov is the U.S. government's official web portal to all federal, state and local government web resources and services.